CheckWX is a tool to help pilots better visualize weather data.  It is not intended as a substitute for an official pre-flight weather briefing.

13:42:20 UTC

KCSQ METAR
Creston Municipal Airport
Creston, Iowa, USA
Current

27 mins ago

KCSQ 201315Z AUTO 20014KT 10SM CLR 27/23 A2981 RMK AO2
Observed
Jul-20 @ 13:15 UTC
Wind
  • 200° at 14 KTS
Visibility
10 SM
Flight Rules
VFR
Cloud Levels
  • Clear skies
Temperature
27°C / 81°F
Dewpoint
23°C / 73°F
Heat Index
30°C / 86°F
Humidity
79%
Altimeter
29.81" Hg
Pressure
1009.52 hPa
Previous

47 mins ago

KCSQ 201255Z AUTO 19014KT 10SM CLR 27/23 A2981 RMK AO2
Observed
Jul-20 @ 12:55 UTC
Wind
  • 190° at 14 KTS
Visibility
10 SM
Flight Rules
VFR
Cloud Levels
  • Clear skies
Temperature
27°C / 81°F
Dewpoint
23°C / 73°F
Heat Index
30°C / 86°F
Humidity
79%
Altimeter
29.81" Hg
Pressure
1009.52 hPa
Previous

1 hour ago

KCSQ 201235Z AUTO 19014KT 10SM CLR 26/23 A2981 RMK AO2
Observed
Jul-20 @ 12:35 UTC
Wind
  • 190° at 14 KTS
Visibility
10 SM
Flight Rules
VFR
Cloud Levels
  • Clear skies
Temperature
26°C / 79°F
Dewpoint
23°C / 73°F
Humidity
84%
Altimeter
29.81" Hg
Pressure
1009.52 hPa